Time;durP1;ratioP1;P1;durP2;ratioP2;P2;SDS_P1;SDS_P2;PMS_P1;PMS_P2;Temp;Humidity;BMP_temperature;BMP_pressure;BME280_temperature;BME280_humidity;BME280_pressure;Samples;Min_cycle;Max_cycle;Signal;HPM_P1;HPM_P2
2023/10/12 00:01:58;;;;;;;14.20;5.40;;;19.10;99.90;;;;;;5033579;28;20194;-63
2023/10/12 00:04:25;;;;;;;14.68;5.80;;;19.10;99.90;;;;;;5033680;28;20195;-62
2023/10/12 00:06:51;;;;;;;12.55;6.50;;;19.10;99.90;;;;;;5033676;28;20175;-62
2023/10/12 00:09:20;;;;;;;13.93;5.60;;;19.10;99.90;;;;;;5015674;28;20183;-62
2023/10/12 00:11:58;;;;;;;12.25;6.68;;;19.10;99.90;;;;;;5016016;28;20198;-62
2023/10/12 00:14:32;;;;;;;11.93;5.82;;;19.10;99.90;;;;;;5015932;28;20179;-62
2023/10/12 00:16:58;;;;;;;12.30;5.90;;;19.00;99.90;;;;;;5033661;28;20160;-62
2023/10/12 00:19:24;;;;;;;15.10;6.10;;;19.00;99.90;;;;;;5033926;28;20531;-62
2023/10/12 00:21:56;;;;;;;10.25;5.47;;;19.00;99.90;;;;;;5033784;28;20269;-62
2023/10/12 00:24:22;;;;;;;13.80;5.82;;;19.00;99.90;;;;;;5033278;28;20193;-62
2023/10/12 00:26:49;;;;;;;15.10;5.60;;;19.10;99.90;;;;;;5015955;28;20217;-62
2023/10/12 00:29:15;;;;;;;13.27;5.40;;;19.10;99.90;;;;;;5033546;28;20580;-62
2023/10/12 00:31:43;;;;;;;14.80;5.68;;;19.20;99.90;;;;;;5033723;28;20178;-62
2023/10/12 00:34:12;;;;;;;16.30;5.72;;;19.20;99.90;;;;;;5015772;28;20190;-62
2023/10/12 00:36:41;;;;;;;14.75;5.75;;;19.20;99.90;;;;;;5033352;28;20171;-62
2023/10/12 00:39:10;;;;;;;15.82;5.28;;;19.20;99.90;;;;;;5033161;28;20171;-63
2023/10/12 00:41:39;;;;;;;18.50;5.75;;;19.20;99.90;;;;;;5033378;28;20181;-62
2023/10/12 00:49:14;;;;;;;14.05;5.35;;;19.10;99.90;;;;;;5034206;28;20576;-63
2023/10/12 00:51:53;;;;;;;16.48;5.82;;;18.90;99.90;;;;;;5034608;28;20194;-63
2023/10/12 00:54:32;;;;;;;13.13;5.60;;;18.90;99.90;;;;;;5037176;28;20156;-63
2023/10/12 00:57:02;;;;;;;16.25;6.22;;;18.80;99.90;;;;;;5037407;28;20640;-62
2023/10/12 00:59:31;;;;;;;12.85;5.47;;;18.70;99.90;;;;;;5037223;28;20175;-63
2023/10/12 01:01:59;;;;;;;9.98;5.55;;;18.70;99.90;;;;;;5037045;28;20203;-63
2023/10/12 01:04:25;;;;;;;14.70;5.55;;;18.60;99.90;;;;;;5037126;28;20586;-62
2023/10/12 01:06:51;;;;;;;12.60;6.22;;;18.60;99.90;;;;;;5037369;28;20254;-62
2023/10/12 01:09:20;;;;;;;12.93;5.30;;;18.50;99.90;;;;;;5036960;28;20755;-63
2023/10/12 01:12:00;;;;;;;10.73;5.70;;;18.50;99.90;;;;;;5037010;28;20268;-63
2023/10/12 01:14:27;;;;;;;10.90;5.90;;;18.50;99.90;;;;;;5037339;28;20163;-62
2023/10/12 01:16:59;;;;;;;13.60;6.35;;;18.50;99.90;;;;;;5036955;28;20651;-63
2023/10/12 01:19:31;;;;;;;11.50;6.22;;;18.40;99.90;;;;;;5019147;28;20650;-63
2023/10/12 01:22:11;;;;;;;11.00;5.55;;;18.30;99.90;;;;;;5037295;28;20206;-62
2023/10/12 01:24:43;;;;;;;12.43;5.88;;;18.20;99.90;;;;;;5018808;28;20588;-62
2023/10/12 01:27:12;;;;;;;15.20;6.60;;;18.10;99.90;;;;;;5037285;28;20199;-62
2023/10/12 01:29:38;;;;;;;18.25;6.70;;;18.00;99.90;;;;;;5037229;28;20177;-62
2023/10/12 01:34:37;;;;;;;11.15;6.20;;;17.90;99.90;;;;;;5036538;28;20177;-62
2023/10/12 01:37:25;;;;;;;15.13;7.55;;;17.90;99.90;;;;;;5037354;28;20164;-62
2023/10/12 01:40:10;;;;;;;10.48;6.38;;;17.80;99.90;;;;;;5036252;28;20175;-62
2023/10/12 01:45:19;;;;;;;11.68;6.25;;;17.80;99.90;;;;;;5036587;28;20187;-62
2023/10/12 01:47:55;;;;;;;11.40;6.03;;;17.80;99.90;;;;;;5036819;28;20211;-63
2023/10/12 01:50:24;;;;;;;11.95;6.60;;;17.80;99.90;;;;;;5018582;28;20548;-62
2023/10/12 01:52:52;;;;;;;11.50;6.13;;;17.80;99.90;;;;;;5018243;28;20660;-62
2023/10/12 01:55:27;;;;;;;12.60;6.53;;;17.80;99.90;;;;;;5035984;28;20632;-62
2023/10/12 01:57:53;;;;;;;14.55;7.10;;;17.80;99.90;;;;;;5036679;28;20638;-62
2023/10/12 02:00:27;;;;;;;12.88;6.53;;;17.70;99.90;;;;;;5018315;28;20179;-62
2023/10/12 02:03:01;;;;;;;13.82;7.00;;;17.70;99.90;;;;;;5035490;28;20301;-62
2023/10/12 02:05:34;;;;;;;14.32;6.03;;;17.80;99.90;;;;;;5036541;28;20191;-62
2023/10/12 02:08:05;;;;;;;15.35;6.85;;;17.80;99.90;;;;;;5036505;28;20164;-62
2023/10/12 02:10:41;;;;;;;10.02;5.85;;;17.80;99.90;;;;;;5035676;28;20203;-63
2023/10/12 02:13:10;;;;;;;11.70;6.47;;;17.70;99.90;;;;;;5035916;28;20190;-62
2023/10/12 02:15:37;;;;;;;10.98;6.78;;;17.70;99.90;;;;;;5018043;28;20605;-62
2023/10/12 02:18:10;;;;;;;17.45;7.05;;;17.60;99.90;;;;;;5035942;28;20171;-63
2023/10/12 02:20:42;;;;;;;11.95;6.60;;;17.60;99.90;;;;;;5035686;28;20164;-62
2023/10/12 02:23:12;;;;;;;17.98;7.63;;;17.60;99.90;;;;;;5035718;28;20214;-62
2023/10/12 02:25:50;;;;;;;13.82;7.22;;;17.50;99.90;;;;;;5017598;28;20200;-62
2023/10/12 02:28:22;;;;;;;17.35;7.65;;;17.40;99.90;;;;;;5035932;28;20164;-62
2023/10/12 02:30:53;;;;;;;13.23;7.70;;;17.20;99.90;;;;;;5035565;28;20206;-62
2023/10/12 02:33:24;;;;;;;14.98;8.18;;;17.10;99.90;;;;;;5035432;28;20195;-62
2023/10/12 02:35:50;;;;;;;13.85;7.63;;;17.00;99.90;;;;;;5017732;28;20565;-62
2023/10/12 02:38:15;;;;;;;11.30;7.78;;;16.90;99.90;;;;;;5035376;28;20262;-62
2023/10/12 02:40:44;;;;;;;13.50;8.80;;;16.90;99.90;;;;;;5035170;28;20266;-62
2023/10/12 02:43:11;;;;;;;16.73;9.15;;;16.70;99.90;;;;;;5035242;28;20242;-62
2023/10/12 02:45:42;;;;;;;18.08;8.98;;;16.70;99.90;;;;;;5035463;28;20231;-62
2023/10/12 02:48:22;;;;;;;17.85;9.60;;;16.60;99.90;;;;;;5035245;28;20160;-62
2023/10/12 02:50:57;;;;;;;15.07;9.15;;;16.50;99.90;;;;;;5017452;28;20167;-62
2023/10/12 02:53:34;;;;;;;17.75;8.80;;;16.40;99.90;;;;;;5017428;28;20265;-62
2023/10/12 02:56:04;;;;;;;20.38;9.80;;;16.30;99.90;;;;;;5034901;28;20492;-62
2023/10/12 02:58:32;;;;;;;15.25;9.73;;;16.30;99.90;;;;;;5035446;28;20163;-62
2023/10/12 03:01:14;;;;;;;14.90;8.98;;;16.30;99.90;;;;;;5034983;28;20175;-62
2023/10/12 03:03:48;;;;;;;14.73;9.43;;;16.20;99.90;;;;;;5034872;28;20198;-62
2023/10/12 03:06:20;;;;;;;18.30;9.27;;;16.20;99.90;;;;;;5035490;28;20156;-62
2023/10/12 03:09:14;;;;;;;15.43;9.40;;;16.10;99.90;;;;;;5035215;28;20214;-63
2023/10/12 03:11:42;;;;;;;17.52;10.13;;;16.20;99.90;;;;;;5015319;28;20159;-62
2023/10/12 03:14:15;;;;;;;18.10;10.07;;;16.10;99.90;;;;;;5014045;28;20270;-62
2023/10/12 03:16:42;;;;;;;19.60;10.93;;;16.00;99.90;;;;;;5015616;28;20251;-62
2023/10/12 03:19:28;;;;;;;18.33;10.57;;;15.90;99.90;;;;;;5015274;28;20303;-62
2023/10/12 03:22:04;;;;;;;17.48;10.30;;;16.00;99.90;;;;;;5016283;28;20192;-64
2023/10/12 03:24:44;;;;;;;18.15;9.98;;;16.00;99.90;;;;;;5015661;28;20642;-62
2023/10/12 03:27:13;;;;;;;17.95;10.55;;;16.00;99.90;;;;;;5015464;28;20558;-64
2023/10/12 03:29:54;;;;;;;20.52;10.00;;;16.00;99.90;;;;;;5015100;28;20175;-63
2023/10/12 03:32:23;;;;;;;16.20;9.75;;;16.00;99.90;;;;;;5014931;28;20192;-62
2023/10/12 03:37:20;;;;;;;18.70;9.25;;;15.90;99.90;;;;;;5014877;28;20182;-62
2023/10/12 03:45:07;;;;;;;17.13;11.35;;;15.80;99.90;;;;;;5034091;28;20191;-63
2023/10/12 03:47:46;;;;;;;20.48;11.10;;;15.80;99.90;;;;;;5016422;28;20186;-63
2023/10/12 03:50:16;;;;;;;24.38;12.27;;;15.80;99.90;;;;;;5034619;28;20158;-63
2023/10/12 03:52:51;;;;;;;16.85;11.45;;;15.90;99.90;;;;;;5034327;28;20210;-62
2023/10/12 03:55:32;;;;;;;20.88;11.63;;;15.70;99.90;;;;;;5033798;28;20205;-63
2023/10/12 03:58:07;;;;;;;17.38;11.60;;;15.70;99.90;;;;;;5016200;28;20189;-62
2023/10/12 04:01:05;;;;;;;18.27;11.23;;;15.60;99.90;;;;;;5034195;28;20238;-62
2023/10/12 04:03:39;;;;;;;15.13;10.95;;;15.70;99.90;;;;;;5033709;28;20203;-62
2023/10/12 04:06:22;;;;;;;21.45;12.57;;;15.70;99.90;;;;;;5034055;28;20154;-62
2023/10/12 04:08:53;;;;;;;19.50;12.43;;;15.60;99.90;;;;;;5016015;28;20240;-62
2023/10/12 04:11:46;;;;;;;18.35;11.68;;;15.50;99.90;;;;;;5033491;28;20186;-62
2023/10/12 04:16:58;;;;;;;19.02;11.77;;;15.50;99.90;;;;;;5033646;28;20206;-62
2023/10/12 04:19:31;;;;;;;19.42;12.25;;;15.40;99.90;;;;;;5015883;28;20231;-62
2023/10/12 04:22:05;;;;;;;19.17;11.95;;;15.30;99.90;;;;;;5033629;28;20187;-62
2023/10/12 04:24:42;;;;;;;20.50;12.45;;;15.20;99.90;;;;;;5033433;28;20187;-62
2023/10/12 04:27:25;;;;;;;20.95;12.65;;;15.20;99.90;;;;;;5033339;28;20155;-62
2023/10/12 04:29:57;;;;;;;22.15;12.20;;;15.10;99.90;;;;;;5033504;28;20159;-63
2023/10/12 04:33:17;;;;;;;20.55;13.27;;;15.20;99.90;;;;;;5015667;28;20574;-63
2023/10/12 04:35:26;;;;;;;17.83;11.70;;;15.30;99.90;;;;;;5025125;28;20203;-62
2023/10/12 04:37:54;;;;;;;19.65;11.90;;;15.20;99.90;;;;;;5033660;28;20631;-62
2023/10/12 04:41:12;;;;;;;19.90;12.30;;;15.20;99.90;;;;;;5033043;28;20179;-62
2023/10/12 04:43:06;;;;;;;18.42;11.55;;;15.10;99.90;;;;;;5032650;28;20218;-62
2023/10/12 04:48:31;;;;;;;21.85;12.02;;;15.20;99.90;;;;;;5033889;28;20238;-62
2023/10/12 04:50:59;;;;;;;21.50;12.82;;;15.20;99.90;;;;;;5033266;28;20262;-62
2023/10/12 04:53:35;;;;;;;20.83;13.38;;;15.20;99.90;;;;;;5033127;28;20604;-62
2023/10/12 04:56:10;;;;;;;20.23;13.07;;;15.20;99.90;;;;;;5033008;28;20159;-62
2023/10/12 04:58:37;;;;;;;20.50;12.50;;;15.10;99.90;;;;;;5033766;28;20182;-62
2023/10/12 05:01:19;;;;;;;25.05;12.55;;;15.10;99.90;;;;;;5033125;28;20172;-63
2023/10/12 05:04:06;;;;;;;21.92;13.40;;;15.10;99.90;;;;;;5015283;28;20218;-63
2023/10/12 05:06:33;;;;;;;24.00;13.68;;;15.10;99.90;;;;;;5032928;28;20643;-63
2023/10/12 05:09:04;;;;;;;23.88;12.55;;;15.20;99.90;;;;;;5033493;28;20178;-63
2023/10/12 05:11:30;;;;;;;23.75;12.95;;;15.20;99.90;;;;;;5032763;28;20258;-63
2023/10/12 05:13:56;;;;;;;20.38;13.35;;;15.20;99.90;;;;;;5032933;28;20181;-63
2023/10/12 05:16:30;;;;;;;19.17;13.32;;;15.10;99.90;;;;;;5032991;28;20175;-63
2023/10/12 05:18:56;;;;;;;18.70;12.10;;;15.00;99.90;;;;;;5015287;28;20197;-63
2023/10/12 05:21:21;;;;;;;21.08;12.77;;;15.00;99.90;;;;;;5033120;28;20509;-62
2023/10/12 05:23:48;;;;;;;22.23;13.75;;;15.00;99.90;;;;;;5033052;28;20203;-62
2023/10/12 05:26:14;;;;;;;21.58;13.98;;;15.00;99.90;;;;;;5014971;28;20266;-62
2023/10/12 05:31:28;;;;;;;19.63;13.73;;;15.00;99.90;;;;;;5004541;28;20188;-62
2023/10/12 05:34:00;;;;;;;27.73;14.77;;;15.00;99.90;;;;;;5033371;28;20178;-62
2023/10/12 05:36:28;;;;;;;26.35;13.48;;;14.90;99.90;;;;;;5032881;28;20188;-62
2023/10/12 05:39:11;;;;;;;21.27;13.35;;;14.90;99.90;;;;;;5018135;28;20258;-62
2023/10/12 05:41:38;;;;;;;25.05;13.98;;;14.90;99.90;;;;;;5036237;28;20183;-62
2023/10/12 05:44:08;;;;;;;24.50;14.63;;;14.80;99.90;;;;;;5036325;28;20214;-62
2023/10/12 05:46:38;;;;;;;24.80;14.68;;;14.80;99.90;;;;;;5018762;28;20254;-62
2023/10/12 05:49:14;;;;;;;27.98;15.23;;;14.80;99.90;;;;;;5036421;28;20250;-62
2023/10/12 05:51:45;;;;;;;22.17;13.68;;;14.80;99.90;;;;;;5036317;28;20213;-62
2023/10/12 05:54:20;;;;;;;21.63;13.80;;;14.80;99.90;;;;;;5036339;28;20616;-62
2023/10/12 05:56:49;;;;;;;24.88;14.50;;;14.80;99.90;;;;;;5036491;28;20576;-62
2023/10/12 05:59:15;;;;;;;24.02;13.90;;;14.80;99.90;;;;;;5036168;28;20175;-63
2023/10/12 06:01:47;;;;;;;21.13;12.75;;;14.80;99.90;;;;;;5035910;28;20214;-63
2023/10/12 06:04:20;;;;;;;27.42;14.57;;;14.80;99.90;;;;;;5036263;28;20187;-63
2023/10/12 06:06:47;;;;;;;23.63;13.23;;;14.80;99.90;;;;;;5036194;28;20189;-63
2023/10/12 06:09:24;;;;;;;24.55;13.23;;;14.70;99.90;;;;;;5035876;28;20152;-63
2023/10/12 06:11:51;;;;;;;24.17;13.27;;;14.80;99.90;;;;;;5036286;28;20194;-63
2023/10/12 06:14:20;;;;;;;18.60;13.25;;;14.90;99.90;;;;;;5035894;28;20258;-63
2023/10/12 06:16:47;;;;;;;24.08;13.45;;;14.90;99.90;;;;;;5036225;28;20183;-62
2023/10/12 06:19:25;;;;;;;23.23;13.48;;;14.90;99.90;;;;;;5036117;28;20175;-62
2023/10/12 06:21:52;;;;;;;19.75;12.55;;;14.80;99.90;;;;;;5035921;28;20191;-62
2023/10/12 06:24:30;;;;;;;26.75;12.77;;;14.80;99.90;;;;;;5035582;28;20195;-62
2023/10/12 06:26:56;;;;;;;24.92;12.93;;;14.80;99.90;;;;;;5035752;28;20164;-62
2023/10/12 06:29:25;;;;;;;21.83;13.07;;;14.80;99.90;;;;;;5036016;28;20163;-62
2023/10/12 06:31:59;;;;;;;19.48;11.55;;;14.70;99.90;;;;;;5035606;28;20587;-62
2023/10/12 06:34:29;;;;;;;27.35;12.40;;;14.70;99.90;;;;;;5035895;28;20159;-62
2023/10/12 06:36:58;;;;;;;27.63;12.57;;;14.80;99.90;;;;;;5035839;28;20179;-62
2023/10/12 06:44:25;;;;;;;21.95;12.52;;;14.80;99.90;;;;;;5035533;28;20202;-62
2023/10/12 06:46:53;;;;;;;21.92;12.75;;;14.80;99.90;;;;;;5035829;28;20151;-63
2023/10/12 06:49:28;;;;;;;20.17;11.90;;;14.70;99.90;;;;;;5035894;28;20155;-62
2023/10/12 06:52:00;;;;;;;22.25;12.40;;;14.70;99.90;;;;;;5035295;28;20190;-63
2023/10/12 06:54:39;;;;;;;24.17;13.13;;;14.80;99.90;;;;;;5035270;28;20163;-63
2023/10/12 06:59:52;;;;;;;20.35;12.07;;;14.80;99.90;;;;;;5035503;28;20159;-63
2023/10/12 07:02:24;;;;;;;22.38;12.63;;;14.80;99.90;;;;;;5035224;28;20225;-63
2023/10/12 07:04:57;;;;;;;26.30;13.38;;;14.80;99.90;;;;;;5035274;28;20187;-62
2023/10/12 07:07:28;;;;;;;19.98;12.70;;;14.80;99.90;;;;;;5035011;28;20651;-62
2023/10/12 07:10:11;;;;;;;22.85;14.05;;;14.80;99.90;;;;;;5034911;28;20179;-62
2023/10/12 07:12:48;;;;;;;26.20;14.68;;;14.80;99.90;;;;;;5035277;28;20194;-62
2023/10/12 07:15:25;;;;;;;22.38;14.88;;;14.80;99.90;;;;;;5017234;28;20229;-62
2023/10/12 07:17:54;;;;;;;21.60;14.45;;;14.80;99.90;;;;;;5035021;28;20178;-63
2023/10/12 07:20:40;;;;;;;26.63;14.95;;;14.80;99.90;;;;;;5017245;28;20233;-63
2023/10/12 07:23:16;;;;;;;25.70;15.45;;;14.80;99.90;;;;;;5034908;28;20272;-63
2023/10/12 07:25:48;;;;;;;25.10;14.73;;;14.80;99.90;;;;;;5016663;28;20248;-63
2023/10/12 07:28:41;;;;;;;24.25;14.82;;;14.80;99.90;;;;;;5016813;28;20171;-63
2023/10/12 07:33:32;;;;;;;25.52;14.90;;;14.80;99.90;;;;;;5034944;28;20191;-63
2023/10/12 07:36:17;;;;;;;19.70;14.25;;;14.80;99.90;;;;;;5034590;28;20181;-63
2023/10/12 07:38:45;;;;;;;25.20;15.88;;;14.80;99.90;;;;;;5016576;28;20171;-62
2023/10/12 07:41:11;;;;;;;20.45;14.25;;;14.80;99.90;;;;;;5033925;28;20179;-62
2023/10/12 07:43:38;;;;;;;26.05;16.00;;;14.80;99.90;;;;;;5034018;28;20198;-62
2023/10/12 07:46:25;;;;;;;23.25;14.85;;;14.80;99.90;;;;;;5034380;28;20168;-63
2023/10/12 07:48:52;;;;;;;26.10;15.43;;;14.80;99.90;;;;;;5033977;28;20527;-62
2023/10/12 07:51:28;;;;;;;24.27;14.32;;;14.80;99.90;;;;;;5034241;28;20254;-62
2023/10/12 07:54:00;;;;;;;22.42;14.73;;;14.90;99.90;;;;;;5034246;28;20246;-62
2023/10/12 07:56:34;;;;;;;27.33;15.38;;;14.90;99.90;;;;;;5034056;28;20242;-63
2023/10/12 07:59:00;;;;;;;27.70;14.48;;;15.00;99.90;;;;;;5033913;28;20242;-63
2023/10/12 08:03:58;;;;;;;25.20;14.45;;;14.90;99.90;;;;;;5033769;28;20206;-63
2023/10/12 08:09:02;;;;;;;21.50;13.93;;;14.90;99.90;;;;;;5034397;28;20155;-63
2023/10/12 08:11:31;;;;;;;23.85;14.38;;;14.90;99.90;;;;;;5015963;28;20632;-63
2023/10/12 08:14:18;;;;;;;21.48;14.32;;;15.00;99.90;;;;;;5015910;28;20194;-63
2023/10/12 08:17:00;;;;;;;25.08;13.93;;;14.90;99.90;;;;;;5015967;28;20179;-63
2023/10/12 08:19:29;;;;;;;20.98;13.80;;;15.00;99.90;;;;;;5033906;28;20163;-63
2023/10/12 08:21:58;;;;;;;19.50;14.18;;;15.00;99.90;;;;;;5034072;28;20198;-63
2023/10/12 08:24:24;;;;;;;22.08;13.57;;;15.10;99.90;;;;;;5033742;28;20207;-63
2023/10/12 08:26:57;;;;;;;21.65;13.70;;;15.10;99.90;;;;;;5033308;28;20547;-62
2023/10/12 08:32:11;;;;;;;22.65;14.60;;;15.10;99.90;;;;;;5034004;28;20191;-62
2023/10/12 08:39:50;;;;;;;24.50;13.77;;;15.20;99.90;;;;;;5033690;28;20654;-62
2023/10/12 08:44:54;;;;;;;22.98;12.90;;;15.30;99.90;;;;;;5033777;28;20636;-62
2023/10/12 08:47:25;;;;;;;21.75;13.07;;;15.30;99.90;;;;;;5033661;28;20159;-62
2023/10/12 08:49:53;;;;;;;25.75;12.80;;;15.40;99.90;;;;;;5015582;28;20606;-62
2023/10/12 08:52:27;;;;;;;23.45;11.95;;;15.40;99.90;;;;;;5033629;28;20564;-62
2023/10/12 08:55:19;;;;;;;21.92;11.55;;;15.50;99.90;;;;;;5033498;28;20154;-62
2023/10/12 08:57:55;;;;;;;20.27;11.55;;;15.50;99.90;;;;;;5033187;28;20210;-62
2023/10/12 09:03:00;;;;;;;25.38;12.68;;;15.50;99.90;;;;;;5032983;28;20301;-62
2023/10/12 09:05:30;;;;;;;19.55;11.50;;;15.50;99.90;;;;;;5033080;28;20198;-62
2023/10/12 09:13:29;;;;;;;20.33;11.32;;;15.50;99.90;;;;;;5035436;28;20198;-62
2023/10/12 09:15:57;;;;;;;19.70;11.82;;;15.50;99.90;;;;;;5037492;28;20172;-62
2023/10/12 09:18:35;;;;;;;20.45;12.05;;;15.50;99.90;;;;;;5037595;28;20190;-62
2023/10/12 09:23:46;;;;;;;20.05;11.48;;;15.50;99.90;;;;;;5036887;28;20195;-62
2023/10/12 09:26:19;;;;;;;20.15;12.15;;;15.50;99.90;;;;;;5036742;28;20156;-62
2023/10/12 09:31:48;;;;;;;16.45;11.70;;;15.60;99.90;;;;;;5036781;28;20215;-61
2023/10/12 09:36:53;;;;;;;20.83;12.05;;;15.60;99.90;;;;;;5037941;28;20254;-62
2023/10/12 09:39:28;;;;;;;17.58;10.68;;;15.70;99.90;;;;;;5037458;28;20175;-62
2023/10/12 09:42:09;;;;;;;28.17;12.32;;;15.70;99.90;;;;;;5036346;28;20198;-62
2023/10/12 09:44:39;;;;;;;15.30;11.32;;;15.80;99.90;;;;;;5036491;28;20183;-62
2023/10/12 09:47:12;;;;;;;21.80;11.20;;;15.90;99.90;;;;;;5036372;28;20167;-61
2023/10/12 09:49:47;;;;;;;19.58;10.77;;;15.90;99.90;;;;;;5036451;28;20156;-61
2023/10/12 09:52:13;;;;;;;20.27;11.80;;;15.90;99.90;;;;;;5018689;28;20206;-61
2023/10/12 09:54:57;;;;;;;18.85;11.40;;;15.90;99.90;;;;;;5036207;28;20228;-61
2023/10/12 09:57:27;;;;;;;18.45;11.55;;;15.90;99.90;;;;;;5035967;28;20159;-61
2023/10/12 09:59:59;;;;;;;20.40;11.15;;;15.90;99.90;;;;;;5036444;28;20175;-61
2023/10/12 10:02:28;;;;;;;21.77;11.20;;;15.90;99.90;;;;;;5018245;28;20253;-61
2023/10/12 10:07:53;;;;;;;14.45;10.25;;;15.90;99.90;;;;;;5036055;28;20162;-61
2023/10/12 10:10:35;;;;;;;21.25;10.60;;;15.90;99.90;;;;;;5035792;28;20265;-62
2023/10/12 10:13:10;;;;;;;18.35;10.50;;;15.90;99.90;;;;;;5035827;28;20595;-62
2023/10/12 10:15:55;;;;;;;19.13;11.27;;;16.00;99.90;;;;;;5035984;28;20167;-61
2023/10/12 10:18:25;;;;;;;16.92;9.70;;;16.00;99.90;;;;;;5036392;28;20160;-62
2023/10/12 10:20:58;;;;;;;21.67;10.57;;;16.10;99.90;;;;;;5035646;28;20258;-62
2023/10/12 10:23:24;;;;;;;18.90;10.40;;;16.10;99.90;;;;;;5035281;28;20218;-61
2023/10/12 10:28:54;;;;;;;19.77;10.63;;;16.10;99.90;;;;;;5036305;28;20670;-61
2023/10/12 10:31:29;;;;;;;18.20;10.57;;;16.10;99.90;;;;;;5035637;28;20164;-61
2023/10/12 10:33:57;;;;;;;19.30;10.27;;;16.10;99.90;;;;;;5035671;28;20241;-62
2023/10/12 10:36:34;;;;;;;23.15;10.63;;;16.20;99.90;;;;;;5017748;28;20189;-61
2023/10/12 10:41:46;;;;;;;13.73;9.15;;;16.20;99.90;;;;;;5035089;28;20198;-62
2023/10/12 10:44:21;;;;;;;18.35;10.02;;;16.20;99.90;;;;;;5035328;28;20660;-62
2023/10/12 10:46:48;;;;;;;18.83;10.73;;;16.30;99.90;;;;;;5035506;28;20159;-62
2023/10/12 10:49:16;;;;;;;16.90;9.85;;;16.30;99.90;;;;;;5035292;28;20172;-61
2023/10/12 10:52:02;;;;;;;16.25;9.57;;;16.30;99.90;;;;;;5017363;28;20640;-62
2023/10/12 10:54:32;;;;;;;15.52;9.65;;;16.40;99.90;;;;;;5035487;28;20170;-61
2023/10/12 10:56:59;;;;;;;16.52;8.90;;;16.40;99.90;;;;;;5017114;28;20562;-62
2023/10/12 10:59:25;;;;;;;18.83;9.93;;;16.50;99.90;;;;;;5035019;28;20175;-61
2023/10/12 11:01:52;;;;;;;17.23;9.95;;;16.40;99.90;;;;;;5034751;28;20275;-61
2023/10/12 11:07:03;;;;;;;14.68;9.45;;;16.50;99.90;;;;;;5035214;28;20156;-62
2023/10/12 11:09:31;;;;;;;16.25;8.80;;;16.50;99.90;;;;;;5035016;28;20175;-62
2023/10/12 11:12:01;;;;;;;15.57;10.18;;;16.60;99.90;;;;;;5016674;28;20191;-62
2023/10/12 11:14:35;;;;;;;24.40;10.07;;;16.60;99.90;;;;;;5034982;28;20266;-62
2023/10/12 11:17:05;;;;;;;15.57;8.98;;;16.70;99.90;;;;;;5035468;28;20155;-62
2023/10/12 11:19:33;;;;;;;15.13;9.27;;;16.70;99.90;;;;;;5034963;28;20171;-63
2023/10/12 11:21:58;;;;;;;18.10;9.13;;;16.80;99.90;;;;;;5034983;28;20191;-62
2023/10/12 11:24:25;;;;;;;15.27;8.93;;;16.90;99.90;;;;;;5016693;28;20725;-63
2023/10/12 11:26:56;;;;;;;16.55;8.10;;;16.90;99.90;;;;;;5034273;28;20659;-62
2023/10/12 11:29:24;;;;;;;14.00;8.38;;;17.00;99.90;;;;;;5034466;28;20171;-62
2023/10/12 11:32:09;;;;;;;18.50;8.48;;;17.10;99.90;;;;;;5034568;28;20524;-62
2023/10/12 11:34:46;;;;;;;14.60;8.23;;;17.10;99.90;;;;;;5034201;28;20171;-62
2023/10/12 11:37:13;;;;;;;14.57;8.45;;;17.20;99.90;;;;;;5034185;28;20595;-62
2023/10/12 11:39:46;;;;;;;17.88;8.73;;;17.20;99.90;;;;;;5034201;28;20237;-62
2023/10/12 11:42:13;;;;;;;16.63;7.68;;;17.20;99.90;;;;;;5033885;28;20194;-62
2023/10/12 11:44:43;;;;;;;14.95;7.72;;;17.10;99.90;;;;;;5034339;28;20286;-62
2023/10/12 11:47:24;;;;;;;13.18;7.57;;;17.20;99.90;;;;;;5016315;28;20179;-63
2023/10/12 11:49:56;;;;;;;17.67;8.50;;;17.20;99.90;;;;;;5034089;28;20659;-64
2023/10/12 11:52:33;;;;;;;13.00;8.60;;;17.10;99.90;;;;;;5034135;28;20226;-63
2023/10/12 11:55:19;;;;;;;17.25;8.00;;;17.20;99.90;;;;;;5034317;28;20155;-62
2023/10/12 11:57:55;;;;;;;17.13;8.73;;;17.10;99.90;;;;;;5033738;28;20194;-62
2023/10/12 12:00:21;;;;;;;13.55;7.80;;;17.00;99.90;;;;;;5033942;28;20212;-62
2023/10/12 12:02:57;;;;;;;16.73;8.55;;;17.00;99.90;;;;;;5033734;28;20211;-62
2023/10/12 12:05:33;;;;;;;13.18;8.02;;;16.90;99.90;;;;;;5034118;28;20194;-62
2023/10/12 12:08:10;;;;;;;15.52;8.05;;;16.90;99.90;;;;;;5033805;28;20155;-62
2023/10/12 12:10:45;;;;;;;17.42;8.48;;;16.90;99.90;;;;;;5033599;28;20185;-62
2023/10/12 12:13:13;;;;;;;15.13;7.65;;;16.90;99.90;;;;;;5034040;28;20191;-62
2023/10/12 12:15:43;;;;;;;10.98;7.97;;;16.90;99.90;;;;;;5033644;28;20220;-63
2023/10/12 12:18:22;;;;;;;11.98;8.40;;;16.80;99.90;;;;;;5034003;28;20181;-62
2023/10/12 12:20:52;;;;;;;17.60;7.95;;;16.90;99.90;;;;;;5033997;28;20159;-63
2023/10/12 12:23:19;;;;;;;15.77;8.50;;;17.00;99.90;;;;;;5034239;28;20203;-63
2023/10/12 12:25:45;;;;;;;16.70;8.02;;;17.00;99.90;;;;;;5015501;28;20199;-63
2023/10/12 12:28:14;;;;;;;20.75;9.13;;;17.00;99.90;;;;;;5033472;28;20178;-63
2023/10/12 12:30:51;;;;;;;14.88;7.97;;;17.00;99.90;;;;;;5033414;28;20221;-62
2023/10/12 12:33:18;;;;;;;13.65;8.50;;;17.00;99.90;;;;;;5033710;28;20191;-63
2023/10/12 12:35:59;;;;;;;15.38;8.38;;;17.00;99.90;;;;;;5033421;28;20179;-63
2023/10/12 12:40:52;;;;;;;13.40;8.75;;;17.10;99.90;;;;;;5033555;28;20240;-62
2023/10/12 12:43:18;;;;;;;13.55;8.40;;;17.00;99.90;;;;;;5033406;28;20199;-62
2023/10/12 12:45:44;;;;;;;14.18;8.57;;;17.00;99.90;;;;;;5033908;28;20198;-62
2023/10/12 12:48:09;;;;;;;12.45;8.50;;;17.00;99.90;;;;;;5039701;28;20178;-62
2023/10/12 12:50:35;;;;;;;13.65;8.50;;;17.10;99.90;;;;;;5039900;28;20690;-62
2023/10/12 12:53:01;;;;;;;15.63;8.68;;;17.10;99.90;;;;;;5039921;28;20190;-63
2023/10/12 12:55:29;;;;;;;12.70;7.95;;;17.10;99.90;;;;;;5040132;28;20178;-63
2023/10/12 12:58:01;;;;;;;15.40;8.27;;;17.10;99.90;;;;;;5039794;28;20179;-63
2023/10/12 13:00:30;;;;;;;12.77;8.82;;;17.10;99.90;;;;;;5040298;28;20159;-63
2023/10/12 13:03:00;;;;;;;12.50;8.32;;;17.10;99.90;;;;;;5022188;28;20217;-63
2023/10/12 13:05:28;;;;;;;16.60;9.07;;;17.10;99.90;;;;;;5040272;28;20213;-63
2023/10/12 13:07:55;;;;;;;14.98;8.32;;;17.10;99.90;;;;;;5039798;28;20272;-64
2023/10/12 13:10:23;;;;;;;15.23;8.90;;;17.10;99.90;;;;;;5039777;28;20179;-63
2023/10/12 13:12:49;;;;;;;10.48;8.02;;;17.20;99.90;;;;;;5039544;28;20563;-64
2023/10/12 13:15:14;;;;;;;13.90;7.68;;;17.20;99.90;;;;;;5039684;28;20183;-62
2023/10/12 13:17:40;;;;;;;16.45;9.05;;;17.20;99.90;;;;;;5039556;28;20171;-62
2023/10/12 13:20:18;;;;;;;12.75;8.68;;;17.20;99.90;;;;;;5039594;28;20545;-63
2023/10/12 13:22:44;;;;;;;13.63;8.95;;;17.20;99.90;;;;;;5039921;28;20601;-63
2023/10/12 13:25:11;;;;;;;16.40;9.23;;;17.20;99.90;;;;;;5039538;28;20202;-63
2023/10/12 13:27:37;;;;;;;17.25;9.68;;;17.20;99.90;;;;;;5021499;28;20179;-62
2023/10/12 13:30:11;;;;;;;17.55;9.13;;;17.10;99.90;;;;;;5040009;28;20168;-62
2023/10/12 13:32:37;;;;;;;17.73;9.13;;;17.10;99.90;;;;;;5021643;28;20206;-62
2023/10/12 13:35:17;;;;;;;18.20;9.25;;;17.10;99.90;;;;;;5039430;28;20582;-63
2023/10/12 13:37:46;;;;;;;17.58;9.32;;;17.10;99.90;;;;;;5039489;28;20221;-62
2023/10/12 13:40:15;;;;;;;18.67;9.85;;;17.00;99.90;;;;;;5039339;28;20233;-62
2023/10/12 13:42:42;;;;;;;16.85;9.60;;;16.90;99.90;;;;;;5039175;28;20199;-62
2023/10/12 13:45:12;;;;;;;18.13;9.82;;;16.90;99.90;;;;;;5039273;28;20550;-62
2023/10/12 13:47:40;;;;;;;18.02;10.63;;;16.80;99.90;;;;;;5039750;28;20178;-62
2023/10/12 13:50:10;;;;;;;19.85;9.70;;;16.80;99.90;;;;;;5039672;28;20544;-62
2023/10/12 13:52:37;;;;;;;14.00;9.63;;;16.70;99.90;;;;;;5039568;28;20683;-62
2023/10/12 13:55:11;;;;;;;17.23;9.88;;;16.70;99.90;;;;;;5039819;28;20256;-62
2023/10/12 13:57:57;;;;;;;14.95;9.23;;;16.70;99.90;;;;;;5020635;28;20548;-62
2023/10/12 14:00:26;;;;;;;17.35;10.00;;;16.70;99.90;;;;;;5036424;28;20536;-62
2023/10/12 14:02:57;;;;;;;16.85;10.00;;;16.70;99.90;;;;;;5035960;28;20594;-62
2023/10/12 14:05:29;;;;;;;20.15;10.07;;;16.70;99.90;;;;;;5036302;28;20636;-62
2023/10/12 14:08:01;;;;;;;20.45;10.65;;;16.70;99.90;;;;;;5036150;28;20187;-62
2023/10/12 14:10:27;;;;;;;18.35;9.88;;;16.80;99.90;;;;;;5036057;28;20179;-62
2023/10/12 14:12:56;;;;;;;15.73;9.45;;;16.70;99.90;;;;;;5035529;28;20282;-62
2023/10/12 14:15:26;;;;;;;15.20;9.35;;;16.80;99.90;;;;;;5035888;28;20206;-63
2023/10/12 14:17:56;;;;;;;13.13;9.45;;;16.80;99.90;;;;;;5036105;28;20250;-63